createdAt,value
2023-12-10T00:46:17.700Z,80
2023-12-10T03:46:21.283Z,81
2023-12-10T04:16:21.886Z,83
2023-12-10T04:26:22.075Z,83
2023-12-10T04:36:22.289Z,84
2023-12-10T04:46:22.471Z,84
2023-12-10T04:56:22.680Z,84
2023-12-10T05:06:22.898Z,84
2023-12-10T05:16:23.105Z,84
2023-12-10T05:26:23.285Z,85
2023-12-10T05:36:23.490Z,85
2023-12-10T05:46:23.701Z,85
2023-12-10T06:16:24.297Z,84
2023-12-10T06:56:25.086Z,82
2023-12-10T07:16:25.537Z,81
2023-12-10T07:26:25.710Z,80
2023-12-10T07:36:25.887Z,79
2023-12-10T07:46:26.090Z,78
2023-12-10T07:56:26.289Z,77
2023-12-10T08:06:26.485Z,77
2023-12-10T08:16:26.674Z,77
2023-12-10T08:26:26.893Z,78
2023-12-10T08:36:27.101Z,78
2023-12-10T08:46:27.261Z,77
2023-12-10T08:56:27.523Z,77
2023-12-10T09:06:27.713Z,76
2023-12-10T11:56:31.112Z,77
2023-12-10T12:26:31.660Z,76
2023-12-10T14:26:34.055Z,77
2023-12-10T14:36:34.296Z,78
2023-12-10T14:56:34.651Z,78
2023-12-10T15:06:34.865Z,79
2023-12-10T15:16:35.034Z,79
2023-12-10T15:26:35.238Z,80
2023-12-10T15:36:35.508Z,80
2023-12-10T15:46:35.644Z,80
2023-12-10T15:56:35.834Z,80
2023-12-10T16:06:36.086Z,79
2023-12-10T16:36:36.637Z,79
2023-12-10T16:46:36.834Z,78
2023-12-10T16:56:37.022Z,78
2023-12-10T17:06:37.278Z,78
2023-12-10T17:16:37.427Z,78
2023-12-10T17:26:37.620Z,78
2023-12-10T17:36:37.857Z,78
2023-12-10T17:46:38.027Z,78
2023-12-10T17:56:38.216Z,79
2023-12-10T18:06:38.495Z,80
2023-12-10T18:16:38.644Z,81
2023-12-10T18:36:39.044Z,82
2023-12-10T18:46:39.232Z,83
2023-12-10T18:56:39.422Z,84
2023-12-10T19:06:39.647Z,84
2023-12-10T19:16:39.815Z,85
2023-12-10T19:26:40.014Z,85
2023-12-10T19:36:40.315Z,86
2023-12-10T19:46:40.431Z,87
2023-12-10T19:56:40.611Z,87
2023-12-10T20:06:40.828Z,87
2023-12-10T20:16:41.036Z,88
2023-12-10T20:36:41.433Z,88
2023-12-10T20:56:41.837Z,87
2023-12-10T21:56:43.024Z,85
2023-12-10T22:16:43.403Z,85
2023-12-10T22:26:43.593Z,85
2023-12-10T22:36:43.853Z,85
2023-12-10T22:56:44.195Z,85
2023-12-10T23:26:44.786Z,84
2023-12-10T23:46:45.197Z,84
